createdAt,value
2024-05-09T00:00:39.784Z,9.65
2024-05-09T00:03:08.361Z,9.66
2024-05-09T00:05:36.557Z,9.71
2024-05-09T00:08:03.835Z,9.70
2024-05-09T00:10:36.313Z,9.62
2024-05-09T00:13:05.683Z,9.61
2024-05-09T00:15:33.971Z,9.67
2024-05-09T00:18:01.388Z,9.66
2024-05-09T00:20:36.474Z,9.66
2024-05-09T00:23:10.587Z,9.63
2024-05-09T00:25:38.018Z,9.62
2024-05-09T00:28:05.344Z,9.65
2024-05-09T00:30:35.403Z,9.60
2024-05-09T00:33:08.431Z,9.63
2024-05-09T00:35:36.609Z,9.59
2024-05-09T00:38:03.606Z,9.60
2024-05-09T00:40:41.725Z,9.62
2024-05-09T00:43:11.828Z,9.60
2024-05-09T00:45:40.839Z,9.55
2024-05-09T00:48:09.087Z,9.56
2024-05-09T00:50:40.795Z,9.57
2024-05-09T00:53:10.205Z,9.55
2024-05-09T00:55:38.022Z,9.55
2024-05-09T00:58:05.623Z,9.54
2024-05-09T01:00:38.766Z,9.54
2024-05-09T01:03:12.551Z,9.46
2024-05-09T01:05:41.741Z,9.49
2024-05-09T01:08:09.824Z,9.48
2024-05-09T01:10:37.429Z,9.46
2024-05-09T01:13:05.544Z,9.48
2024-05-09T01:15:33.588Z,9.43
2024-05-09T01:18:03.989Z,9.37
2024-05-09T01:20:41.129Z,9.43
2024-05-09T01:23:14.497Z,9.40
2024-05-09T01:25:43.143Z,9.40
2024-05-09T01:28:09.930Z,9.34
2024-05-09T01:30:37.807Z,9.25
2024-05-09T01:33:07.380Z,9.33
2024-05-09T01:35:35.899Z,9.31
2024-05-09T01:38:02.786Z,9.27
2024-05-09T01:40:37.091Z,9.29
2024-05-09T01:43:07.119Z,9.29
2024-05-09T01:45:33.846Z,9.25
2024-05-09T01:48:00.915Z,9.22
2024-05-09T01:52:57.433Z,9.26
2024-05-09T01:55:24.018Z,9.17
2024-05-09T01:57:50.520Z,9.22
2024-05-09T02:00:25.872Z,9.12
2024-05-09T02:02:57.994Z,9.16
2024-05-09T02:05:25.052Z,9.13
2024-05-09T02:07:53.514Z,9.16
2024-05-09T02:10:25.988Z,9.12
2024-05-09T02:12:58.172Z,9.06
2024-05-09T02:15:24.769Z,8.97
2024-05-09T02:17:51.613Z,9.01
2024-05-09T02:20:27.167Z,9.00
2024-05-09T02:22:59.943Z,8.92
2024-05-09T02:25:27.066Z,8.91
2024-05-09T02:27:53.610Z,8.90
2024-05-09T02:30:29.900Z,8.86
2024-05-09T02:33:05.030Z,8.81
2024-05-09T02:35:31.828Z,8.80
2024-05-09T02:37:58.529Z,8.75
2024-05-09T02:40:33.338Z,8.68
2024-05-09T02:43:03.975Z,8.66
2024-05-09T02:45:30.603Z,8.65
2024-05-09T02:47:57.440Z,8.65
2024-05-09T02:50:33.078Z,8.62
2024-05-09T02:53:04.411Z,8.52
2024-05-09T02:55:31.164Z,8.48
2024-05-09T02:57:57.836Z,8.41
2024-05-09T03:00:33.662Z,8.48
2024-05-09T03:03:05.677Z,8.43
2024-05-09T03:05:32.659Z,8.34
2024-05-09T03:07:59.294Z,8.30
2024-05-09T03:10:28.934Z,8.24
2024-05-09T03:12:59.555Z,8.26
2024-05-09T03:15:26.167Z,8.19
2024-05-09T03:17:52.943Z,8.21
2024-05-09T03:20:23.961Z,8.23
2024-05-09T03:22:56.734Z,8.20
2024-05-09T03:25:23.779Z,8.17
2024-05-09T03:27:50.417Z,8.04
2024-05-09T03:30:29.186Z,8.03
2024-05-09T03:33:03.106Z,8.06
2024-05-09T03:35:30.753Z,7.91
2024-05-09T03:37:58.303Z,7.94
2024-05-09T03:40:28.945Z,7.89
2024-05-09T03:42:57.323Z,7.82
2024-05-09T03:45:23.948Z,7.76
2024-05-09T03:47:50.623Z,7.68
2024-05-09T03:50:22.874Z,7.70
2024-05-09T03:52:56.443Z,7.66
2024-05-09T03:55:23.038Z,7.61
2024-05-09T03:57:49.659Z,7.61
2024-05-09T04:00:22.597Z,7.57
2024-05-09T04:02:59.732Z,7.52
2024-05-09T04:05:26.589Z,7.48
2024-05-09T04:07:55.340Z,7.54
2024-05-09T04:10:30.220Z,7.50
2024-05-09T04:12:59.725Z,7.45
2024-05-09T04:15:26.498Z,7.52
2024-05-09T04:17:53.364Z,7.46
2024-05-09T04:20:29.345Z,7.50
2024-05-09T04:23:04.506Z,7.52
2024-05-09T04:25:34.145Z,7.54
2024-05-09T04:28:00.703Z,7.53
2024-05-09T04:30:36.353Z,7.53
2024-05-09T04:33:08.278Z,7.55
2024-05-09T04:35:36.961Z,7.62
2024-05-09T04:38:05.188Z,7.67
2024-05-09T04:40:35.240Z,7.67
2024-05-09T04:43:05.091Z,7.70
2024-05-09T04:45:31.946Z,7.71
2024-05-09T04:47:59.086Z,7.73
2024-05-09T04:50:35.261Z,7.80
2024-05-09T04:53:05.960Z,7.83
2024-05-09T04:55:33.291Z,7.85
2024-05-09T04:57:59.944Z,7.82
2024-05-09T05:00:34.567Z,8.01
2024-05-09T05:03:10.109Z,8.05
2024-05-09T05:05:42.128Z,8.10
2024-05-09T05:08:12.868Z,8.14
2024-05-09T05:10:40.240Z,8.22
2024-05-09T05:13:17.697Z,8.29
2024-05-09T05:15:48.943Z,8.24
2024-05-09T05:18:16.541Z,8.39
2024-05-09T05:20:43.777Z,8.43
2024-05-09T05:23:12.409Z,8.50
2024-05-09T05:25:40.145Z,8.57
2024-05-09T05:28:07.541Z,8.65
2024-05-09T05:30:37.064Z,8.68
2024-05-09T05:33:10.752Z,8.80
2024-05-09T05:35:37.797Z,8.77
2024-05-09T05:38:04.816Z,8.87
2024-05-09T05:40:36.478Z,9.05
2024-05-09T05:43:05.895Z,9.22
2024-05-09T05:45:32.620Z,9.36
2024-05-09T05:48:00.306Z,9.43
2024-05-09T05:50:32.846Z,9.47
2024-05-09T05:53:03.418Z,9.60
2024-05-09T05:55:30.173Z,9.71
2024-05-09T05:57:56.870Z,9.88
2024-05-09T06:00:30.000Z,9.91
2024-05-09T06:03:05.087Z,10.09
2024-05-09T06:05:32.173Z,10.28
2024-05-09T06:07:59.130Z,10.41
2024-05-09T06:10:30.252Z,10.62
2024-05-09T06:13:04.326Z,10.65
2024-05-09T06:15:31.073Z,10.91
2024-05-09T06:17:57.858Z,11.22
2024-05-09T06:20:33.998Z,11.40
2024-05-09T06:23:03.602Z,11.57
2024-05-09T06:25:30.632Z,11.93
2024-05-09T06:27:57.276Z,12.21
2024-05-09T06:30:30.570Z,12.37
2024-05-09T06:33:05.357Z,12.63
2024-05-09T06:35:33.426Z,12.81
2024-05-09T06:38:00.332Z,12.91
2024-05-09T06:40:36.099Z,13.08
2024-05-09T06:43:05.733Z,13.28
2024-05-09T06:45:32.602Z,13.52
2024-05-09T06:47:59.670Z,13.77
2024-05-09T06:50:28.717Z,13.87
2024-05-09T06:53:02.554Z,13.95
2024-05-09T06:55:29.427Z,13.92
2024-05-09T06:57:56.027Z,14.07
2024-05-09T07:00:30.495Z,14.13
2024-05-09T07:03:13.407Z,14.37
2024-05-09T07:05:42.861Z,14.43
2024-05-09T07:08:09.754Z,14.52
2024-05-09T07:10:37.139Z,14.75
2024-05-09T07:13:11.105Z,14.68
2024-05-09T07:15:38.139Z,14.78
2024-05-09T07:18:10.420Z,14.86
2024-05-09T07:20:37.450Z,15.04
2024-05-09T07:23:04.304Z,15.22
2024-05-09T07:25:31.097Z,15.30
2024-05-09T07:28:00.426Z,15.30
2024-05-09T07:30:33.046Z,15.28
2024-05-09T07:33:02.636Z,15.49
2024-05-09T07:35:30.399Z,15.65
2024-05-09T07:37:59.361Z,15.53
2024-05-09T07:40:33.129Z,15.62
2024-05-09T07:43:04.070Z,15.82
2024-05-09T07:45:47.768Z,15.89
2024-05-09T07:53:38.754Z,16.17
2024-05-09T07:56:09.091Z,16.11
2024-05-09T07:58:36.541Z,16.22
2024-05-09T08:01:03.410Z,16.29
2024-05-09T08:03:30.544Z,16.28
2024-05-09T08:05:57.194Z,16.18
2024-05-09T08:08:23.769Z,16.39
2024-05-09T08:10:51.282Z,16.56
2024-05-09T08:13:18.168Z,16.71
2024-05-09T08:15:45.054Z,16.82
2024-05-09T08:18:12.236Z,16.86
2024-05-09T08:20:40.476Z,16.90
2024-05-09T08:23:07.550Z,17.05
2024-05-09T08:25:34.306Z,17.22
2024-05-09T08:28:01.019Z,17.32
2024-05-09T08:30:33.697Z,17.24
2024-05-09T08:33:04.643Z,17.25
2024-05-09T08:35:31.885Z,17.36
2024-05-09T08:37:58.845Z,17.48
2024-05-09T08:40:33.292Z,17.46
2024-05-09T08:43:04.749Z,17.48
2024-05-09T08:45:33.306Z,17.31
2024-05-09T08:48:01.372Z,17.26
2024-05-09T08:50:35.893Z,17.45
2024-05-09T08:53:06.074Z,17.58
2024-05-09T08:55:32.768Z,17.82
2024-05-09T08:58:02.955Z,18.17
2024-05-09T09:00:36.773Z,18.29
2024-05-09T09:03:07.990Z,18.18
2024-05-09T09:05:37.592Z,18.18
2024-05-09T09:08:09.096Z,18.21
2024-05-09T09:10:37.897Z,18.46
2024-05-09T09:13:09.290Z,18.74
2024-05-09T09:15:49.433Z,19.21
2024-05-09T09:18:17.829Z,19.45
2024-05-09T09:20:45.081Z,19.47
2024-05-09T09:23:14.639Z,19.17
2024-05-09T09:25:41.384Z,18.89
2024-05-09T09:28:08.677Z,18.55
2024-05-09T09:30:40.449Z,18.64
2024-05-09T09:33:09.232Z,18.79
2024-05-09T09:35:36.343Z,18.05
2024-05-09T09:38:04.446Z,18.04
2024-05-09T09:40:37.167Z,18.31
2024-05-09T09:43:14.276Z,18.71
2024-05-09T09:45:43.610Z,18.77
2024-05-09T09:48:11.977Z,19.01
2024-05-09T09:50:39.991Z,18.97
2024-05-09T09:53:07.565Z,18.71
2024-05-09T09:55:35.548Z,18.53
2024-05-09T09:58:04.616Z,18.59
2024-05-09T10:00:34.116Z,18.88
2024-05-09T10:03:01.884Z,19.07
2024-05-09T10:05:30.117Z,19.13
2024-05-09T10:07:58.620Z,19.43
2024-05-09T10:10:31.740Z,19.51
2024-05-09T10:13:07.574Z,18.95
2024-05-09T10:15:48.554Z,18.59
2024-05-09T10:18:15.718Z,18.47
2024-05-09T10:20:45.457Z,18.44
2024-05-09T10:23:32.432Z,18.26
2024-05-09T10:26:00.002Z,18.05
2024-05-09T10:28:28.229Z,18.07
2024-05-09T10:31:15.797Z,18.15
2024-05-09T10:33:48.744Z,18.46
2024-05-09T10:36:20.751Z,18.45
2024-05-09T10:38:48.896Z,18.38
2024-05-09T10:41:19.725Z,18.16
2024-05-09T10:43:46.659Z,18.11
2024-05-09T10:46:14.743Z,18.32
2024-05-09T10:48:43.774Z,18.58
2024-05-09T10:51:10.951Z,18.80
2024-05-09T10:53:42.496Z,18.98
2024-05-09T10:56:09.962Z,19.26
2024-05-09T10:58:38.641Z,19.61
2024-05-09T11:01:07.296Z,19.89
2024-05-09T11:03:35.336Z,20.04
2024-05-09T11:06:02.700Z,19.91
2024-05-09T11:08:31.693Z,19.91
2024-05-09T11:10:59.552Z,20.00
2024-05-09T11:13:37.685Z,20.09
2024-05-09T11:16:05.990Z,20.19
2024-05-09T11:18:38.007Z,20.35
2024-05-09T11:21:12.994Z,20.49
2024-05-09T11:23:40.387Z,20.53
2024-05-09T11:26:07.554Z,20.47
2024-05-09T11:28:34.288Z,20.34
2024-05-09T11:31:07.325Z,20.14
2024-05-09T11:33:37.643Z,19.84
2024-05-09T11:36:05.876Z,19.66
2024-05-09T11:38:32.942Z,19.52
2024-05-09T11:40:59.764Z,19.37
2024-05-09T11:43:26.393Z,19.24
2024-05-09T11:45:53.237Z,19.07
2024-05-09T11:48:20.105Z,18.93
2024-05-09T11:50:46.874Z,19.06
2024-05-09T11:53:13.496Z,19.22
2024-05-09T11:55:40.043Z,19.47
2024-05-09T11:58:08.288Z,19.63
2024-05-09T12:00:37.528Z,19.82
2024-05-09T12:03:05.836Z,20.04
2024-05-09T12:05:34.107Z,20.07
2024-05-09T12:08:01.224Z,20.02
2024-05-09T12:10:33.270Z,19.99
2024-05-09T12:13:06.801Z,20.15
2024-05-09T12:15:37.734Z,20.25
2024-05-09T12:18:06.251Z,20.50
2024-05-09T12:20:37.581Z,20.67
2024-05-09T12:23:07.396Z,20.72
2024-05-09T12:25:34.879Z,20.85
2024-05-09T12:28:01.794Z,20.72
2024-05-09T12:30:35.895Z,20.60
2024-05-09T12:33:06.319Z,20.31
2024-05-09T12:35:33.247Z,19.97
2024-05-09T12:38:00.079Z,19.66
2024-05-09T12:40:35.160Z,19.32
2024-05-09T12:43:05.265Z,19.01
2024-05-09T12:45:32.172Z,19.16
2024-05-09T12:47:59.357Z,19.17
2024-05-09T12:50:32.890Z,18.97
2024-05-09T12:53:01.704Z,18.96
2024-05-09T12:55:33.480Z,19.21
2024-05-09T12:58:06.956Z,19.52
2024-05-09T13:00:34.563Z,19.69
2024-05-09T13:03:01.647Z,19.96
2024-05-09T13:05:29.071Z,20.01
2024-05-09T13:07:56.842Z,20.08
2024-05-09T13:10:30.838Z,20.04
2024-05-09T13:13:00.012Z,19.86
2024-05-09T13:15:27.196Z,19.81
2024-05-09T13:17:55.844Z,19.59
2024-05-09T13:20:29.645Z,19.67
2024-05-09T13:23:01.410Z,19.71
2024-05-09T13:25:28.139Z,19.64
2024-05-09T13:27:54.992Z,19.58
2024-05-09T13:30:29.501Z,19.52
2024-05-09T13:33:05.184Z,19.61
2024-05-09T13:35:32.299Z,19.77
2024-05-09T13:37:59.019Z,19.90
2024-05-09T13:40:32.670Z,20.20
2024-05-09T13:43:02.309Z,20.48
2024-05-09T13:45:29.051Z,20.44
2024-05-09T13:47:59.790Z,20.41
2024-05-09T13:50:33.795Z,20.36
2024-05-09T13:53:06.571Z,20.37
2024-05-09T13:55:35.406Z,20.29
2024-05-09T13:58:02.983Z,20.17
2024-05-09T14:02:59.306Z,20.13
2024-05-09T14:05:25.981Z,20.21
2024-05-09T14:07:52.649Z,20.23
2024-05-09T14:10:23.499Z,20.17
2024-05-09T14:12:55.496Z,20.22
2024-05-09T14:15:22.205Z,20.23
2024-05-09T14:17:48.890Z,20.25
2024-05-09T14:20:23.802Z,20.45
2024-05-09T14:22:57.431Z,20.59
2024-05-09T14:25:26.370Z,20.46
2024-05-09T14:27:53.228Z,20.34
2024-05-09T14:30:29.711Z,20.28
2024-05-09T14:33:01.578Z,20.21
2024-05-09T14:35:28.272Z,20.11
2024-05-09T14:37:55.013Z,20.13
2024-05-09T14:40:31.176Z,20.10
2024-05-09T14:43:06.465Z,19.86
2024-05-09T14:45:38.105Z,19.55
2024-05-09T14:48:06.138Z,19.29
2024-05-09T14:50:37.189Z,19.13
2024-05-09T14:53:07.686Z,18.92
2024-05-09T14:55:37.294Z,18.77
2024-05-09T14:58:12.836Z,18.63
2024-05-09T15:00:46.950Z,18.86
2024-05-09T15:03:17.996Z,18.97
2024-05-09T15:05:45.384Z,18.88
2024-05-09T15:08:12.332Z,18.80
2024-05-09T15:10:39.324Z,18.65
2024-05-09T15:13:08.044Z,18.76
2024-05-09T15:15:36.609Z,18.96
2024-05-09T15:18:07.137Z,19.31
2024-05-09T15:20:36.708Z,19.33
2024-05-09T15:23:06.876Z,19.30
2024-05-09T15:25:34.582Z,19.41
2024-05-09T15:28:01.416Z,19.44
2024-05-09T15:30:31.511Z,19.17
2024-05-09T15:33:01.231Z,19.13
2024-05-09T15:35:28.224Z,19.22
2024-05-09T15:37:55.399Z,19.13
2024-05-09T15:40:31.291Z,19.27
2024-05-09T15:43:05.731Z,19.76
2024-05-09T15:45:32.649Z,19.86
2024-05-09T15:47:59.886Z,19.95
2024-05-09T15:50:36.269Z,19.54
2024-05-09T15:53:07.920Z,19.81
2024-05-09T15:55:35.454Z,19.63
2024-05-09T15:58:03.456Z,19.43
2024-05-09T16:00:37.666Z,19.27
2024-05-09T16:03:07.878Z,19.19
2024-05-09T16:05:34.903Z,19.12
2024-05-09T16:08:02.196Z,19.07
2024-05-09T16:10:32.772Z,18.94
2024-05-09T16:13:01.455Z,18.98
2024-05-09T16:15:28.494Z,18.93
2024-05-09T16:17:55.326Z,18.87
2024-05-09T16:20:33.706Z,18.75
2024-05-09T16:23:06.040Z,18.51
2024-05-09T16:25:32.638Z,18.33
2024-05-09T16:28:07.446Z,18.23
2024-05-09T16:30:37.353Z,18.08
2024-05-09T16:33:05.328Z,18.11
2024-05-09T16:35:32.894Z,18.06
2024-05-09T16:38:01.946Z,18.02
2024-05-09T16:40:43.937Z,17.94
2024-05-09T16:43:12.302Z,17.80
2024-05-09T16:45:41.231Z,17.73
2024-05-09T16:48:09.329Z,17.67
2024-05-09T16:50:36.735Z,17.61
2024-05-09T16:53:04.995Z,17.51
2024-05-09T16:55:32.414Z,17.44
2024-05-09T16:58:00.073Z,17.35
2024-05-09T17:00:36.621Z,17.25
2024-05-09T17:03:14.782Z,17.17
2024-05-09T17:05:42.959Z,17.04
2024-05-09T17:08:14.871Z,17.01
2024-05-09T17:10:41.650Z,16.94
2024-05-09T17:13:08.574Z,16.89
2024-05-09T17:15:36.939Z,16.84
2024-05-09T17:18:05.159Z,16.77
2024-05-09T17:20:35.280Z,16.73
2024-05-09T17:23:05.853Z,16.71
2024-05-09T17:25:33.360Z,16.70
2024-05-09T17:28:06.414Z,16.63
2024-05-09T17:30:38.682Z,16.55
2024-05-09T17:33:09.502Z,16.53
2024-05-09T17:35:37.502Z,16.44
2024-05-09T17:38:05.689Z,16.40
2024-05-09T17:40:35.913Z,16.32
2024-05-09T17:43:05.379Z,16.23
2024-05-09T17:45:32.919Z,16.13
2024-05-09T17:48:00.170Z,16.05
2024-05-09T17:50:34.638Z,15.91
2024-05-09T17:53:03.491Z,15.85
2024-05-09T17:55:33.080Z,15.78
2024-05-09T17:57:59.978Z,15.69
2024-05-09T18:00:37.472Z,15.56
2024-05-09T18:03:08.196Z,15.57
2024-05-09T18:05:36.187Z,15.51
2024-05-09T18:08:03.658Z,15.41
2024-05-09T18:10:36.149Z,15.35
2024-05-09T18:13:06.267Z,15.22
2024-05-09T18:15:33.511Z,15.18
2024-05-09T18:18:00.956Z,15.10
2024-05-09T18:20:37.725Z,15.00
2024-05-09T18:23:10.655Z,14.92
2024-05-09T18:25:37.486Z,14.82
2024-05-09T18:28:04.676Z,14.69
2024-05-09T18:30:35.159Z,14.64
2024-05-09T18:33:05.405Z,14.57
2024-05-09T18:35:33.405Z,14.40
2024-05-09T18:38:00.235Z,14.36
2024-05-09T18:40:33.412Z,14.21
2024-05-09T18:43:06.691Z,14.17
2024-05-09T18:45:35.202Z,14.10
2024-05-09T18:48:04.894Z,14.03
2024-05-09T18:50:36.066Z,13.98
2024-05-09T18:53:10.185Z,13.87
2024-05-09T18:55:37.276Z,13.81
2024-05-09T18:58:04.986Z,13.72
2024-05-09T19:00:36.222Z,13.63
2024-05-09T19:03:11.813Z,13.59
2024-05-09T19:05:41.459Z,13.45
2024-05-09T19:08:08.811Z,13.27
2024-05-09T19:10:37.358Z,13.25
2024-05-09T19:13:09.313Z,13.16
2024-05-09T19:15:39.755Z,13.01
2024-05-09T19:18:07.166Z,13.02
2024-05-09T19:20:35.755Z,12.97
2024-05-09T19:23:04.111Z,12.93
2024-05-09T19:25:30.987Z,12.85
2024-05-09T19:27:57.884Z,12.83
2024-05-09T19:30:34.468Z,12.78
2024-05-09T19:33:06.728Z,12.66
2024-05-09T19:35:33.521Z,12.71
2024-05-09T19:38:00.374Z,12.66
2024-05-09T19:40:31.645Z,12.59
2024-05-09T19:43:01.562Z,12.62
2024-05-09T19:45:28.825Z,12.55
2024-05-09T19:47:55.816Z,12.51
2024-05-09T19:50:30.860Z,12.48
2024-05-09T19:53:04.267Z,12.43
2024-05-09T19:55:30.831Z,12.37
2024-05-09T19:58:04.757Z,12.36
2024-05-09T20:00:38.168Z,12.34
2024-05-09T20:03:07.377Z,12.30
2024-05-09T20:05:34.503Z,12.16
2024-05-09T20:08:03.160Z,12.15
2024-05-09T20:10:32.828Z,12.01
2024-05-09T20:13:02.327Z,11.95
2024-05-09T20:15:29.290Z,11.80
2024-05-09T20:17:56.167Z,11.76
2024-05-09T20:20:32.932Z,11.76
2024-05-09T20:23:05.647Z,11.68
2024-05-09T20:25:32.260Z,11.62
2024-05-09T20:27:58.972Z,11.58
2024-05-09T20:30:31.551Z,11.51
2024-05-09T20:33:00.511Z,11.50
2024-05-09T20:35:30.423Z,11.44
2024-05-09T20:37:58.799Z,11.50
2024-05-09T20:40:31.621Z,11.43
2024-05-09T20:43:02.046Z,11.39
2024-05-09T20:45:28.739Z,11.38
2024-05-09T20:47:55.480Z,11.31
2024-05-09T20:50:29.194Z,11.30
2024-05-09T20:53:03.696Z,11.21
2024-05-09T20:55:30.520Z,11.19
2024-05-09T20:57:57.539Z,11.20
2024-05-09T21:00:33.805Z,11.19
2024-05-09T21:03:06.487Z,11.07
2024-05-09T21:05:34.266Z,11.05
2024-05-09T21:08:01.338Z,10.98
2024-05-09T21:10:32.283Z,10.89
2024-05-09T21:13:00.385Z,10.97
2024-05-09T21:15:27.079Z,10.94
2024-05-09T21:17:53.572Z,10.89
2024-05-09T21:20:24.408Z,10.81
2024-05-09T21:22:57.656Z,10.73
2024-05-09T21:25:24.352Z,10.78
2024-05-09T21:27:51.124Z,10.72
2024-05-09T21:30:26.794Z,10.73
2024-05-09T21:32:59.360Z,10.66
2024-05-09T21:35:26.030Z,10.63
2024-05-09T21:37:52.676Z,10.64
2024-05-09T21:40:27.276Z,10.57
2024-05-09T21:43:00.953Z,10.53
2024-05-09T21:45:27.721Z,10.58
2024-05-09T21:47:54.621Z,10.56
2024-05-09T21:50:28.195Z,10.44
2024-05-09T21:53:01.978Z,10.49
2024-05-09T21:55:28.542Z,10.41
2024-05-09T21:57:56.452Z,10.34
2024-05-09T22:00:32.047Z,10.41
2024-05-09T22:03:03.381Z,10.35
2024-05-09T22:05:30.238Z,10.34
2024-05-09T22:07:57.074Z,10.27
2024-05-09T22:10:30.505Z,10.28
2024-05-09T22:13:00.654Z,10.24
2024-05-09T22:15:27.345Z,10.05
2024-05-09T22:17:56.438Z,10.14
2024-05-09T22:20:32.849Z,10.08
2024-05-09T22:23:03.908Z,10.00
2024-05-09T22:25:31.461Z,9.98
2024-05-09T22:27:58.956Z,9.85
2024-05-09T22:30:34.163Z,9.88
2024-05-09T22:33:05.737Z,9.87
2024-05-09T22:35:32.851Z,9.85
2024-05-09T22:37:59.574Z,9.78
2024-05-09T22:40:38.087Z,9.80
2024-05-09T22:43:12.871Z,9.73
2024-05-09T22:45:39.732Z,9.75
2024-05-09T22:48:07.779Z,9.53
2024-05-09T22:50:34.695Z,9.41
2024-05-09T22:53:01.382Z,9.25
2024-05-09T22:55:28.010Z,9.23
2024-05-09T22:57:54.848Z,9.06
2024-05-09T23:00:29.385Z,9.00
2024-05-09T23:03:02.852Z,8.93
2024-05-09T23:05:30.769Z,8.94
2024-05-09T23:07:57.783Z,8.84
2024-05-09T23:10:31.538Z,8.86
2024-05-09T23:13:02.871Z,8.73
2024-05-09T23:15:29.865Z,8.78
2024-05-09T23:17:57.378Z,8.76
2024-05-09T23:20:33.687Z,8.70
2024-05-09T23:23:05.407Z,8.74
2024-05-09T23:25:32.055Z,8.72
2024-05-09T23:27:58.783Z,8.72
2024-05-09T23:32:55.138Z,8.67
2024-05-09T23:35:21.937Z,8.70
2024-05-09T23:37:48.598Z,8.63
2024-05-09T23:40:18.833Z,8.68
2024-05-09T23:42:49.220Z,8.67
2024-05-09T23:45:15.886Z,8.67
2024-05-09T23:47:42.528Z,8.68
2024-05-09T23:50:16.544Z,8.62
2024-05-09T23:52:47.284Z,8.59
2024-05-09T23:55:14.065Z,8.62
2024-05-09T23:57:41.148Z,8.62
